Time;durP1;ratioP1;P1;durP2;ratioP2;P2;SDS_P1;SDS_P2;PMS_P1;PMS_P2;Temp;Humidity;BMP_temperature;BMP_pressure;BME280_temperature;BME280_humidity;BME280_pressure;Samples;Min_cycle;Max_cycle;Signal;HPM_P1;HPM_P2
2021/03/18 00:01:05;;;;;;;1.58;1.08;;;;;;;;;;5133051;27;20019;-66
2021/03/18 00:03:33;;;;;;;2.55;1.65;;;;;;;;;;5133792;27;20053;-66
2021/03/18 00:06:00;;;;;;;1.77;1.40;;;;;;;;;;5133447;27;20180;-65
2021/03/18 00:08:26;;;;;;;1.98;1.88;;;;;;;;;;5133348;27;20030;-65
2021/03/18 00:10:53;;;;;;;2.20;1.63;;;;;;;;;;5133803;27;20046;-66
2021/03/18 00:13:20;;;;;;;3.08;1.45;;;;;;;;;;5133549;27;20030;-65
2021/03/18 00:15:46;;;;;;;1.60;1.17;;;;;;;;;;5116953;27;20051;-65
2021/03/18 00:18:14;;;;;;;1.23;1.13;;;;;;;;;;5112941;28;20024;-65
2021/03/18 00:20:40;;;;;;;2.78;1.67;;;;;;;;;;5113074;28;20035;-65
2021/03/18 00:23:06;;;;;;;2.25;1.33;;;;;;;;;;5112439;28;20446;-65
2021/03/18 00:25:33;;;;;;;2.33;1.67;;;;;;;;;;5113361;28;20027;-66
2021/03/18 00:27:59;;;;;;;2.33;1.33;;;;;;;;;;5112556;28;20111;-66
2021/03/18 00:30:25;;;;;;;3.05;1.33;;;;;;;;;;5112138;28;20057;-66
2021/03/18 00:32:52;;;;;;;1.58;1.30;;;;;;;;;;5113249;28;20111;-66
2021/03/18 00:35:19;;;;;;;1.20;1.10;;;;;;;;;;5112131;28;20038;-65
2021/03/18 00:37:45;;;;;;;2.22;1.23;;;;;;;;;;5112440;28;20031;-66
2021/03/18 00:40:14;;;;;;;1.23;1.00;;;;;;;;;;5111527;28;20023;-66
2021/03/18 00:42:52;;;;;;;1.90;1.33;;;;;;;;;;5112657;28;20027;-65
2021/03/18 00:45:18;;;;;;;1.52;1.10;;;;;;;;;;5112153;28;20063;-65
2021/03/18 00:47:45;;;;;;;2.85;1.23;;;;;;;;;;5112892;28;20489;-65
2021/03/18 00:50:12;;;;;;;2.72;1.10;;;;;;;;;;5111647;28;20493;-65
2021/03/18 00:52:38;;;;;;;1.35;1.00;;;;;;;;;;5112566;28;20094;-65
2021/03/18 00:55:04;;;;;;;1.35;1.00;;;;;;;;;;5112277;28;20169;-66
2021/03/18 00:57:30;;;;;;;3.63;1.85;;;;;;;;;;5112191;28;20030;-66
2021/03/18 00:59:57;;;;;;;3.33;1.60;;;;;;;;;;5130600;27;20103;-65
2021/03/18 01:02:23;;;;;;;1.58;1.38;;;;;;;;;;5131861;27;20030;-65
2021/03/18 01:04:49;;;;;;;0.88;0.82;;;;;;;;;;5132439;27;20042;-65
2021/03/18 01:07:15;;;;;;;0.90;0.90;;;;;;;;;;5132108;27;20035;-65
2021/03/18 01:09:41;;;;;;;1.83;1.23;;;;;;;;;;5132563;27;20024;-65
2021/03/18 01:12:08;;;;;;;8.82;2.00;;;;;;;;;;5131808;27;20031;-65
2021/03/18 01:14:34;;;;;;;1.65;1.10;;;;;;;;;;5132778;27;20020;-66
2021/03/18 01:17:00;;;;;;;1.73;0.95;;;;;;;;;;5132458;27;20106;-65
2021/03/18 01:19:26;;;;;;;1.55;1.00;;;;;;;;;;5132087;27;20016;-65
2021/03/18 01:21:54;;;;;;;1.45;0.93;;;;;;;;;;5132330;27;20031;-65
2021/03/18 01:24:20;;;;;;;0.98;0.98;;;;;;;;;;5131721;27;20039;-65
2021/03/18 01:26:46;;;;;;;1.63;1.10;;;;;;;;;;5132701;27;20038;-65
2021/03/18 01:29:13;;;;;;;1.58;0.75;;;;;;;;;;5131254;27;20500;-65
2021/03/18 01:31:39;;;;;;;1.80;1.70;;;;;;;;;;5132310;27;20062;-65
2021/03/18 01:34:06;;;;;;;2.25;1.13;;;;;;;;;;5131560;27;20035;-65
2021/03/18 01:36:33;;;;;;;3.53;0.90;;;;;;;;;;5132339;27;20024;-65
2021/03/18 01:38:59;;;;;;;1.88;1.58;;;;;;;;;;5131508;27;20121;-65
2021/03/18 01:41:26;;;;;;;0.93;0.93;;;;;;;;;;5131553;27;20059;-66
2021/03/18 01:43:52;;;;;;;1.02;0.90;;;;;;;;;;5132077;27;20215;-66
2021/03/18 01:46:18;;;;;;;1.13;1.02;;;;;;;;;;5131357;27;20461;-65
2021/03/18 01:48:45;;;;;;;1.40;0.70;;;;;;;;;;5132338;27;20034;-66
2021/03/18 01:51:12;;;;;;;1.85;1.10;;;;;;;;;;5131168;27;20023;-65
2021/03/18 01:53:38;;;;;;;2.92;1.80;;;;;;;;;;5131653;27;20061;-65
2021/03/18 01:56:05;;;;;;;1.40;1.27;;;;;;;;;;5131614;27;20019;-65
2021/03/18 01:58:32;;;;;;;1.58;0.80;;;;;;;;;;5131531;27;20427;-66
2021/03/18 02:00:59;;;;;;;4.88;1.95;;;;;;;;;;5131129;27;20446;-66
2021/03/18 02:03:26;;;;;;;5.07;2.15;;;;;;;;;;5130800;27;20451;-66
2021/03/18 02:05:52;;;;;;;1.42;1.30;;;;;;;;;;5131591;27;20027;-66
2021/03/18 02:08:19;;;;;;;2.30;1.05;;;;;;;;;;5130709;27;20051;-66
2021/03/18 02:10:46;;;;;;;1.52;1.17;;;;;;;;;;5130900;27;20031;-66
2021/03/18 02:13:13;;;;;;;3.70;1.15;;;;;;;;;;5130810;27;20465;-66
2021/03/18 02:15:41;;;;;;;1.52;0.82;;;;;;;;;;5131430;27;20025;-66
2021/03/18 02:18:26;;;;;;;4.15;1.77;;;;;;;;;;5130677;27;20027;-66
2021/03/18 02:20:52;;;;;;;1.25;1.13;;;;;;;;;;5130100;27;20031;-66
2021/03/18 02:23:36;;;;;;;1.27;1.23;;;;;;;;;;5130183;27;20035;-65
2021/03/18 02:26:21;;;;;;;1.38;1.00;;;;;;;;;;5130885;27;20054;-64
2021/03/18 02:29:01;;;;;;;1.48;1.10;;;;;;;;;;5131412;27;20098;-65
2021/03/18 02:31:39;;;;;;;1.77;0.90;;;;;;;;;;5130625;27;20038;-65
2021/03/18 02:34:08;;;;;;;1.52;1.42;;;;;;;;;;5130251;27;20027;-65
2021/03/18 02:36:36;;;;;;;0.77;0.77;;;;;;;;;;5131447;27;20023;-66
2021/03/18 02:39:06;;;;;;;2.45;1.10;;;;;;;;;;5130530;27;20038;-66
2021/03/18 02:41:34;;;;;;;2.03;1.20;;;;;;;;;;5130631;27;20103;-66
2021/03/18 02:44:09;;;;;;;0.80;0.80;;;;;;;;;;5130300;27;20396;-66
2021/03/18 02:46:36;;;;;;;2.05;1.45;;;;;;;;;;5130843;27;20034;-66
2021/03/18 02:49:04;;;;;;;1.27;1.17;;;;;;;;;;5130484;27;20023;-66
2021/03/18 02:51:32;;;;;;;1.45;1.00;;;;;;;;;;5130375;27;20057;-66
2021/03/18 02:53:59;;;;;;;1.00;1.00;;;;;;;;;;5130659;27;20051;-66
2021/03/18 02:56:26;;;;;;;2.05;1.42;;;;;;;;;;5130470;27;20037;-66
2021/03/18 02:58:53;;;;;;;1.38;1.10;;;;;;;;;;5129940;27;20043;-66
2021/03/18 03:01:20;;;;;;;1.63;1.05;;;;;;;;;;5129626;28;20046;-66
2021/03/18 03:03:47;;;;;;;1.73;1.63;;;;;;;;;;5130843;28;20084;-66
2021/03/18 03:06:14;;;;;;;3.83;1.67;;;;;;;;;;5130150;28;20488;-66
2021/03/18 03:08:41;;;;;;;1.58;0.98;;;;;;;;;;5130705;28;20080;-67
2021/03/18 03:11:07;;;;;;;1.70;1.58;;;;;;;;;;5129520;28;20035;-66
2021/03/18 03:13:35;;;;;;;1.40;0.98;;;;;;;;;;5130400;28;20076;-66
2021/03/18 03:16:03;;;;;;;4.25;1.20;;;;;;;;;;5130280;28;20114;-66
2021/03/18 03:18:30;;;;;;;2.40;1.10;;;;;;;;;;5130662;28;20095;-66
2021/03/18 03:20:58;;;;;;;2.38;1.35;;;;;;;;;;5130864;28;20027;-66
2021/03/18 03:23:24;;;;;;;3.25;1.92;;;;;;;;;;5130236;28;20397;-66
2021/03/18 03:25:51;;;;;;;2.70;1.00;;;;;;;;;;5130782;28;20366;-66
2021/03/18 03:28:17;;;;;;;2.28;1.42;;;;;;;;;;5129945;28;20032;-66
2021/03/18 03:30:43;;;;;;;0.98;0.90;;;;;;;;;;5130320;27;20032;-66
2021/03/18 03:33:10;;;;;;;1.92;1.63;;;;;;;;;;5133327;27;20104;-66
2021/03/18 03:35:36;;;;;;;0.80;0.70;;;;;;;;;;5134746;27;20027;-66
2021/03/18 03:38:03;;;;;;;1.45;1.30;;;;;;;;;;5133558;27;20084;-66
2021/03/18 03:40:29;;;;;;;2.75;1.63;;;;;;;;;;5134031;27;20055;-66
2021/03/18 03:42:55;;;;;;;0.95;0.85;;;;;;;;;;5134280;27;20489;-66
2021/03/18 03:45:22;;;;;;;1.80;1.02;;;;;;;;;;5133398;27;20128;-66
2021/03/18 03:47:48;;;;;;;2.47;1.45;;;;;;;;;;5134683;27;20072;-66
2021/03/18 03:50:18;;;;;;;1.67;0.90;;;;;;;;;;5133345;27;20031;-66
2021/03/18 03:52:52;;;;;;;1.98;1.45;;;;;;;;;;5134207;27;20023;-66
2021/03/18 03:55:18;;;;;;;;;;;;;;;;;;5134181;27;20042;-66
2021/03/18 03:57:50;;;;;;;1.38;1.20;;;;;;;;;;5133729;27;19904;-66
2021/03/18 04:00:16;;;;;;;2.45;1.02;;;;;;;;;;5133250;27;20505;-66
2021/03/18 04:02:43;;;;;;;2.20;1.20;;;;;;;;;;5133932;27;20113;-66
2021/03/18 04:05:11;;;;;;;1.20;0.73;;;;;;;;;;5132971;27;20035;-66
2021/03/18 04:07:38;;;;;;;1.65;1.15;;;;;;;;;;5133957;27;20061;-66
2021/03/18 04:10:05;;;;;;;1.02;0.75;;;;;;;;;;5132918;27;20383;-66
2021/03/18 04:12:33;;;;;;;1.70;1.38;;;;;;;;;;5133807;27;20030;-66
2021/03/18 04:15:04;;;;;;;1.50;1.02;;;;;;;;;;5123400;27;20110;-66
2021/03/18 04:17:32;;;;;;;1.08;0.65;;;;;;;;;;5113603;28;20031;-66
2021/03/18 04:19:58;;;;;;;0.82;0.82;;;;;;;;;;5112890;28;20042;-66
2021/03/18 04:22:27;;;;;;;0.88;0.88;;;;;;;;;;5112498;28;20395;-66
2021/03/18 04:24:54;;;;;;;1.50;1.20;;;;;;;;;;5113324;28;20032;-66
2021/03/18 04:27:20;;;;;;;1.90;0.98;;;;;;;;;;5112202;28;20090;-66
2021/03/18 04:29:47;;;;;;;3.90;1.58;;;;;;;;;;5112989;28;20451;-66
2021/03/18 04:32:13;;;;;;;4.20;1.58;;;;;;;;;;5111765;28;20032;-66
2021/03/18 04:34:41;;;;;;;1.10;0.70;;;;;;;;;;5113121;28;20038;-66
2021/03/18 04:37:07;;;;;;;3.33;0.93;;;;;;;;;;5112014;28;20020;-66
2021/03/18 04:39:37;;;;;;;1.23;0.85;;;;;;;;;;5112777;28;20043;-66
2021/03/18 04:42:04;;;;;;;2.65;1.30;;;;;;;;;;5111522;28;20024;-66
2021/03/18 04:44:31;;;;;;;1.35;0.70;;;;;;;;;;5112480;28;20127;-66
2021/03/18 04:46:58;;;;;;;1.52;0.68;;;;;;;;;;5112364;28;20027;-66
2021/03/18 04:49:26;;;;;;;0.70;0.70;;;;;;;;;;5112099;28;20061;-66
2021/03/18 04:51:52;;;;;;;1.05;0.75;;;;;;;;;;5112004;28;20024;-66
2021/03/18 04:54:19;;;;;;;0.93;0.85;;;;;;;;;;5112318;28;20039;-66
2021/03/18 04:56:46;;;;;;;0.98;0.75;;;;;;;;;;5112587;28;20031;-66
2021/03/18 04:59:16;;;;;;;2.10;0.52;;;;;;;;;;5123588;27;20531;-66
2021/03/18 05:01:49;;;;;;;0.82;0.80;;;;;;;;;;5132269;27;20027;-66
2021/03/18 05:04:16;;;;;;;1.10;1.00;;;;;;;;;;5132189;27;20404;-66
2021/03/18 05:06:43;;;;;;;1.55;0.77;;;;;;;;;;5132906;27;20085;-66
2021/03/18 05:09:10;;;;;;;1.50;0.90;;;;;;;;;;5132254;27;20080;-66
2021/03/18 05:11:37;;;;;;;2.45;1.65;;;;;;;;;;5132502;27;20522;-66
2021/03/18 05:14:03;;;;;;;1.33;1.02;;;;;;;;;;5132183;27;20445;-66
2021/03/18 05:16:29;;;;;;;2.92;1.13;;;;;;;;;;5132781;27;20049;-66
2021/03/18 05:18:56;;;;;;;3.88;1.48;;;;;;;;;;5132719;27;20441;-66
2021/03/18 05:21:22;;;;;;;1.63;1.15;;;;;;;;;;5131536;27;20034;-66
2021/03/18 05:23:48;;;;;;;1.73;0.90;;;;;;;;;;5132334;27;20084;-66
2021/03/18 05:26:14;;;;;;;2.40;1.20;;;;;;;;;;5132037;27;20031;-66
2021/03/18 05:28:40;;;;;;;1.70;1.00;;;;;;;;;;5132337;27;20121;-66
2021/03/18 05:31:06;;;;;;;1.48;0.93;;;;;;;;;;5131190;27;20490;-66
2021/03/18 05:33:32;;;;;;;1.05;0.70;;;;;;;;;;5132525;27;20080;-66
2021/03/18 05:35:58;;;;;;;3.15;1.33;;;;;;;;;;5131877;27;20027;-66
2021/03/18 05:38:25;;;;;;;1.92;0.80;;;;;;;;;;5131792;27;20531;-66
2021/03/18 05:40:54;;;;;;;1.85;1.20;;;;;;;;;;5131083;27;20038;-66
2021/03/18 05:43:22;;;;;;;2.05;0.80;;;;;;;;;;5131428;27;20734;-66
2021/03/18 05:45:48;;;;;;;2.15;1.20;;;;;;;;;;5131972;27;20211;-66
2021/03/18 05:48:14;;;;;;;1.48;0.90;;;;;;;;;;5131255;27;20042;-66
2021/03/18 05:50:41;;;;;;;2.15;1.85;;;;;;;;;;5131315;27;20031;-66
2021/03/18 05:53:09;;;;;;;2.80;1.42;;;;;;;;;;5131190;27;20546;-66
2021/03/18 05:55:36;;;;;;;0.60;0.60;;;;;;;;;;5131210;27;20027;-66
2021/03/18 05:58:02;;;;;;;2.38;1.20;;;;;;;;;;5130663;27;20046;-66
2021/03/18 06:00:29;;;;;;;4.88;1.15;;;;;;;;;;5131140;27;20027;-66
2021/03/18 06:02:55;;;;;;;1.13;1.02;;;;;;;;;;5131643;27;20023;-66
2021/03/18 06:05:21;;;;;;;2.95;1.33;;;;;;;;;;5130866;27;20077;-66
2021/03/18 06:07:48;;;;;;;1.38;1.00;;;;;;;;;;5131594;27;20496;-66
2021/03/18 06:10:16;;;;;;;1.42;1.00;;;;;;;;;;5130363;27;20019;-66
2021/03/18 06:12:43;;;;;;;1.48;0.70;;;;;;;;;;5131537;27;20038;-66
2021/03/18 06:15:10;;;;;;;1.88;1.17;;;;;;;;;;5119233;27;20102;-66
2021/03/18 06:17:36;;;;;;;1.35;1.10;;;;;;;;;;5110895;28;20030;-66
2021/03/18 06:20:04;;;;;;;1.23;0.77;;;;;;;;;;5110123;28;20107;-66
2021/03/18 06:22:34;;;;;;;0.95;0.85;;;;;;;;;;5110597;28;20201;-66
2021/03/18 06:25:00;;;;;;;2.92;0.80;;;;;;;;;;5110357;28;20505;-66
2021/03/18 06:27:27;;;;;;;1.67;1.52;;;;;;;;;;5110419;28;20016;-66
2021/03/18 06:29:53;;;;;;;1.85;1.35;;;;;;;;;;5110523;28;20023;-66
2021/03/18 06:32:23;;;;;;;1.85;1.10;;;;;;;;;;5110005;28;20573;-66
2021/03/18 06:34:50;;;;;;;1.00;0.80;;;;;;;;;;5110687;28;20030;-66
2021/03/18 06:37:29;;;;;;;2.13;1.52;;;;;;;;;;5109966;28;20030;-66
2021/03/18 06:39:56;;;;;;;1.17;0.93;;;;;;;;;;5110498;28;20367;-66
2021/03/18 06:42:22;;;;;;;1.65;0.80;;;;;;;;;;5109886;28;20028;-66
2021/03/18 06:44:48;;;;;;;3.55;1.73;;;;;;;;;;5108529;28;20105;-66
2021/03/18 06:47:14;;;;;;;4.57;1.52;;;;;;;;;;5106455;28;20108;-66
2021/03/18 06:49:40;;;;;;;3.10;2.08;;;;;;;;;;5109071;28;20401;-66
2021/03/18 06:52:08;;;;;;;5.05;1.33;;;;;;;;;;5100257;28;20044;-66
2021/03/18 06:54:38;;;;;;;3.08;1.75;;;;;;;;;;5091201;28;20024;-66
2021/03/18 06:57:04;;;;;;;4.03;2.45;;;;;;;;;;5105888;28;20085;-66
2021/03/18 06:59:34;;;;;;;3.95;1.88;;;;;;;;;;5096252;27;20060;-66
2021/03/18 07:02:10;;;;;;;2.13;1.65;;;;;;;;;;5095620;28;20498;-66
2021/03/18 07:04:40;;;;;;;5.25;2.22;;;;;;;;;;5096165;28;20032;-66
2021/03/18 07:07:07;;;;;;;3.97;2.00;;;;;;;;;;5113894;28;20080;-66
2021/03/18 07:09:33;;;;;;;2.92;1.90;;;;;;;;;;5113236;28;20450;-66
2021/03/18 07:12:01;;;;;;;6.72;2.75;;;;;;;;;;5113369;28;20023;-66
2021/03/18 07:14:38;;;;;;;2.28;2.05;;;;;;;;;;5103273;28;20114;-66
2021/03/18 07:17:05;;;;;;;2.78;2.55;;;;;;;;;;5100631;27;20402;-66
2021/03/18 07:19:31;;;;;;;5.25;2.88;;;;;;;;;;5091068;28;20123;-66
2021/03/18 07:21:58;;;;;;;3.00;2.58;;;;;;;;;;5109369;28;20438;-67
2021/03/18 07:24:27;;;;;;;8.07;3.33;;;;;;;;;;5097365;28;20036;-65
2021/03/18 07:26:54;;;;;;;9.40;4.18;;;;;;;;;;5113213;28;20036;-65
2021/03/18 07:29:25;;;;;;;8.77;3.42;;;;;;;;;;5100743;28;20506;-65
2021/03/18 07:31:51;;;;;;;5.65;2.90;;;;;;;;;;5103630;28;20035;-65
2021/03/18 07:34:18;;;;;;;6.10;2.97;;;;;;;;;;5100999;28;20387;-66
2021/03/18 07:36:45;;;;;;;6.35;2.88;;;;;;;;;;5099995;28;20047;-65
2021/03/18 07:39:11;;;;;;;2.60;2.25;;;;;;;;;;5102329;28;20064;-66
2021/03/18 07:41:38;;;;;;;4.55;3.03;;;;;;;;;;5095198;28;20032;-66
2021/03/18 07:44:05;;;;;;;8.57;3.42;;;;;;;;;;5103260;28;20055;-65
2021/03/18 07:46:33;;;;;;;7.05;3.17;;;;;;;;;;5104009;28;20089;-65
2021/03/18 07:49:10;;;;;;;4.07;2.67;;;;;;;;;;5104451;28;20091;-65
2021/03/18 07:51:37;;;;;;;7.25;2.90;;;;;;;;;;5104848;28;20024;-65
2021/03/18 07:54:03;;;;;;;7.43;3.47;;;;;;;;;;5107302;28;20075;-65
2021/03/18 07:56:29;;;;;;;3.35;2.88;;;;;;;;;;5109385;28;20176;-65
2021/03/18 07:58:55;;;;;;;4.50;2.88;;;;;;;;;;5115088;27;20518;-64
2021/03/18 08:01:31;;;;;;;4.55;2.58;;;;;;;;;;5126975;27;20046;-65
2021/03/18 08:03:57;;;;;;;3.97;2.60;;;;;;;;;;5124041;27;20023;-65
2021/03/18 08:06:42;;;;;;;7.43;2.95;;;;;;;;;;5123249;27;20111;-64
2021/03/18 08:09:13;;;;;;;6.22;2.45;;;;;;;;;;5129072;27;20094;-64
2021/03/18 08:11:40;;;;;;;7.63;3.72;;;;;;;;;;5130577;27;20027;-65
2021/03/18 08:14:10;;;;;;;5.50;2.65;;;;;;;;;;5132770;27;20035;-64
2021/03/18 08:16:36;;;;;;;5.85;3.13;;;;;;;;;;5132264;27;20019;-65
2021/03/18 08:19:03;;;;;;;5.35;2.70;;;;;;;;;;5128805;27;20034;-65
2021/03/18 08:21:34;;;;;;;6.05;2.90;;;;;;;;;;5129106;27;20060;-65
2021/03/18 08:24:00;;;;;;;5.07;2.30;;;;;;;;;;5118313;27;20035;-65
2021/03/18 08:26:38;;;;;;;4.65;3.35;;;;;;;;;;5129235;27;20027;-65
2021/03/18 08:29:09;;;;;;;6.60;3.47;;;;;;;;;;5124954;27;20379;-65
2021/03/18 08:31:35;;;;;;;8.65;3.97;;;;;;;;;;5129687;27;20027;-65
2021/03/18 08:34:02;;;;;;;7.18;2.83;;;;;;;;;;5117142;27;20121;-64
2021/03/18 08:36:29;;;;;;;5.60;2.58;;;;;;;;;;5128910;27;20487;-65
2021/03/18 08:38:59;;;;;;;7.60;3.25;;;;;;;;;;5126885;27;20031;-65
2021/03/18 08:41:32;;;;;;;7.43;3.67;;;;;;;;;;5122403;27;20465;-64
2021/03/18 08:44:13;;;;;;;5.35;2.55;;;;;;;;;;5127986;27;20123;-65
2021/03/18 08:46:45;;;;;;;6.72;4.05;;;;;;;;;;5126437;27;20394;-64
2021/03/18 08:49:38;;;;;;;11.30;3.63;;;;;;;;;;5128880;27;20027;-64
2021/03/18 08:52:08;;;;;;;5.95;2.65;;;;;;;;;;5121664;27;20063;-65
2021/03/18 08:54:41;;;;;;;6.53;2.85;;;;;;;;;;5126485;27;20470;-64
2021/03/18 08:57:08;;;;;;;11.27;3.97;;;;;;;;;;5126903;27;20047;-67
2021/03/18 08:59:34;;;;;;;10.60;3.13;;;;;;;;;;5124075;27;20573;-64
2021/03/18 09:02:11;;;;;;;5.55;2.78;;;;;;;;;;5124259;27;20494;-65
2021/03/18 09:04:47;;;;;;;3.35;2.15;;;;;;;;;;5125688;27;20039;-65
2021/03/18 09:07:20;;;;;;;5.88;2.30;;;;;;;;;;5122877;27;21363;-65
2021/03/18 09:09:47;;;;;;;5.95;2.95;;;;;;;;;;5122951;27;20385;-65
2021/03/18 09:12:13;;;;;;;7.28;3.65;;;;;;;;;;5126276;27;20031;-65
2021/03/18 09:14:40;;;;;;;5.63;2.67;;;;;;;;;;5130321;27;20035;-65
2021/03/18 09:17:13;;;;;;;5.22;2.00;;;;;;;;;;5123737;27;20065;-65
2021/03/18 09:19:45;;;;;;;5.22;2.97;;;;;;;;;;5120523;27;20050;-65
2021/03/18 09:22:14;;;;;;;2.65;2.42;;;;;;;;;;5116839;27;20036;-65
2021/03/18 09:24:43;;;;;;;4.32;2.28;;;;;;;;;;5122516;27;20571;-65
2021/03/18 09:27:13;;;;;;;6.55;3.35;;;;;;;;;;5124699;27;20458;-66
2021/03/18 09:29:40;;;;;;;3.00;2.17;;;;;;;;;;5122848;27;20562;-65
2021/03/18 09:32:07;;;;;;;5.80;2.45;;;;;;;;;;5124961;27;20061;-65
2021/03/18 09:34:37;;;;;;;6.07;3.95;;;;;;;;;;5118007;27;20586;-65
2021/03/18 09:37:05;;;;;;;5.45;2.50;;;;;;;;;;5114295;27;20038;-65
2021/03/18 09:39:31;;;;;;;5.03;3.03;;;;;;;;;;5118978;27;20035;-65
2021/03/18 09:42:00;;;;;;;10.05;2.80;;;;;;;;;;5117065;27;20031;-65
2021/03/18 09:44:27;;;;;;;7.00;3.13;;;;;;;;;;5105141;27;20035;-65
2021/03/18 09:46:54;;;;;;;8.18;3.15;;;;;;;;;;5116279;27;20552;-65
2021/03/18 09:49:33;;;;;;;4.03;2.70;;;;;;;;;;5118838;27;20035;-65
2021/03/18 09:52:01;;;;;;;4.82;2.78;;;;;;;;;;5115962;27;20038;-67
2021/03/18 09:54:27;;;;;;;5.20;2.38;;;;;;;;;;5117750;27;20035;-67
2021/03/18 09:56:54;;;;;;;4.93;2.58;;;;;;;;;;5118853;27;20526;-67
2021/03/18 09:59:21;;;;;;;5.20;2.58;;;;;;;;;;5116224;27;20357;-68
2021/03/18 10:01:47;;;;;;;5.00;2.70;;;;;;;;;;5115213;27;20561;-67
2021/03/18 10:04:19;;;;;;;3.65;2.05;;;;;;;;;;5112531;27;20130;-67
2021/03/18 10:06:48;;;;;;;2.97;2.20;;;;;;;;;;5119521;27;20068;-67
2021/03/18 10:09:31;;;;;;;6.95;1.67;;;;;;;;;;5116777;27;20110;-68
2021/03/18 10:11:57;;;;;;;5.60;2.83;;;;;;;;;;5116023;27;20501;-67
2021/03/18 10:14:24;;;;;;;3.05;2.10;;;;;;;;;;5114592;27;20624;-68
2021/03/18 10:16:51;;;;;;;3.40;2.28;;;;;;;;;;5118784;27;20038;-68
2021/03/18 10:19:18;;;;;;;7.18;3.20;;;;;;;;;;5117667;27;20135;-68
2021/03/18 10:21:44;;;;;;;6.05;2.90;;;;;;;;;;5118212;27;20450;-68
2021/03/18 10:24:11;;;;;;;4.57;1.73;;;;;;;;;;5117824;27;20318;-68
2021/03/18 10:26:38;;;;;;;2.92;1.83;;;;;;;;;;5118454;27;20130;-68
2021/03/18 10:29:05;;;;;;;3.97;2.63;;;;;;;;;;5118366;27;20030;-68
2021/03/18 10:31:32;;;;;;;6.80;2.58;;;;;;;;;;5117399;27;20042;-68
2021/03/18 10:33:58;;;;;;;3.33;2.00;;;;;;;;;;5118163;27;20049;-68
2021/03/18 10:36:33;;;;;;;6.00;3.05;;;;;;;;;;5113595;27;20057;-68
2021/03/18 10:39:00;;;;;;;5.50;2.08;;;;;;;;;;5116100;27;20086;-68
2021/03/18 10:41:26;;;;;;;4.55;1.85;;;;;;;;;;5112872;27;20012;-68
2021/03/18 10:43:55;;;;;;;5.68;2.58;;;;;;;;;;5117205;27;20074;-68
2021/03/18 10:46:29;;;;;;;3.28;2.03;;;;;;;;;;5101641;27;20035;-70
2021/03/18 10:48:55;;;;;;;2.50;1.83;;;;;;;;;;5117322;27;20602;-67
2021/03/18 10:51:22;;;;;;;1.60;1.50;;;;;;;;;;5111929;27;20043;-68
2021/03/18 10:53:49;;;;;;;4.65;1.85;;;;;;;;;;5115529;27;20039;-68
2021/03/18 10:56:17;;;;;;;3.17;1.80;;;;;;;;;;5116236;27;20126;-68
2021/03/18 10:58:43;;;;;;;3.63;1.48;;;;;;;;;;5108203;27;20051;-68
2021/03/18 11:01:10;;;;;;;4.07;2.35;;;;;;;;;;5094489;28;20019;-67
2021/03/18 11:03:44;;;;;;;3.92;2.53;;;;;;;;;;5096868;28;20031;-67
2021/03/18 11:06:29;;;;;;;7.60;2.67;;;;;;;;;;5095405;28;20039;-67
2021/03/18 11:08:55;;;;;;;3.63;1.60;;;;;;;;;;5096595;28;20123;-67
2021/03/18 11:11:23;;;;;;;3.17;1.85;;;;;;;;;;5092889;28;20027;-68
2021/03/18 11:13:49;;;;;;;2.33;1.65;;;;;;;;;;5096612;28;20028;-67
2021/03/18 11:16:22;;;;;;;3.13;1.60;;;;;;;;;;5098841;28;21273;-68
2021/03/18 11:18:49;;;;;;;2.70;1.35;;;;;;;;;;5099210;28;20046;-67
2021/03/18 11:21:21;;;;;;;6.93;2.53;;;;;;;;;;5095572;28;20036;-67
2021/03/18 11:23:48;;;;;;;2.63;1.77;;;;;;;;;;5099346;28;20082;-67
2021/03/18 11:26:14;;;;;;;4.55;1.98;;;;;;;;;;5096450;28;20055;-68
2021/03/18 11:28:54;;;;;;;5.18;2.10;;;;;;;;;;5096091;28;20123;-67
2021/03/18 11:31:21;;;;;;;8.68;1.95;;;;;;;;;;5096363;28;20023;-67
2021/03/18 11:33:48;;;;;;;5.00;1.73;;;;;;;;;;5095531;28;20036;-67
2021/03/18 11:36:14;;;;;;;4.28;2.13;;;;;;;;;;5093409;28;20035;-68
2021/03/18 11:38:40;;;;;;;1.85;1.50;;;;;;;;;;5098781;28;20024;-68
2021/03/18 11:41:06;;;;;;;2.70;1.48;;;;;;;;;;5094647;28;20509;-68
2021/03/18 11:43:32;;;;;;;2.78;1.48;;;;;;;;;;5097384;28;20434;-68
2021/03/18 11:45:59;;;;;;;6.95;2.42;;;;;;;;;;5097276;28;20035;-67
2021/03/18 11:48:25;;;;;;;3.67;1.23;;;;;;;;;;5095431;28;20088;-67
2021/03/18 11:50:51;;;;;;;3.80;1.35;;;;;;;;;;5097792;28;20081;-68
2021/03/18 11:53:18;;;;;;;2.13;1.23;;;;;;;;;;5098384;28;20406;-67
2021/03/18 11:55:44;;;;;;;4.18;1.60;;;;;;;;;;5100884;28;20028;-67
2021/03/18 11:58:10;;;;;;;1.45;1.35;;;;;;;;;;5103349;27;20142;-67
2021/03/18 12:00:37;;;;;;;1.80;1.10;;;;;;;;;;5108261;27;20070;-67
2021/03/18 12:03:04;;;;;;;2.05;1.70;;;;;;;;;;5111889;27;20027;-66
2021/03/18 12:05:30;;;;;;;5.10;2.05;;;;;;;;;;5112019;27;20035;-67
2021/03/18 12:07:56;;;;;;;6.78;2.30;;;;;;;;;;5105871;27;20028;-67
2021/03/18 12:10:23;;;;;;;3.58;2.13;;;;;;;;;;5105337;27;20035;-67
2021/03/18 12:12:49;;;;;;;3.28;2.15;;;;;;;;;;5111828;27;20151;-67
2021/03/18 12:15:16;;;;;;;3.35;1.90;;;;;;;;;;5112162;27;20535;-67
2021/03/18 12:17:43;;;;;;;3.03;1.67;;;;;;;;;;5104444;27;20035;-67
2021/03/18 12:20:10;;;;;;;3.38;1.10;;;;;;;;;;5110135;27;20032;-67
2021/03/18 12:22:37;;;;;;;3.28;1.70;;;;;;;;;;5112556;27;20039;-68
2021/03/18 12:25:04;;;;;;;2.38;0.93;;;;;;;;;;5111222;27;20497;-66
2021/03/18 12:27:32;;;;;;;4.55;1.48;;;;;;;;;;5105295;27;20055;-67
2021/03/18 12:29:58;;;;;;;1.30;0.98;;;;;;;;;;5104797;27;20032;-67
2021/03/18 12:32:24;;;;;;;1.50;1.40;;;;;;;;;;5104690;27;20043;-67
2021/03/18 12:34:50;;;;;;;5.15;2.20;;;;;;;;;;5111926;27;20471;-68
2021/03/18 12:37:17;;;;;;;1.25;1.10;;;;;;;;;;5103582;27;20339;-67
2021/03/18 12:39:44;;;;;;;2.58;1.60;;;;;;;;;;5108003;27;20036;-68
2021/03/18 12:42:11;;;;;;;4.78;1.30;;;;;;;;;;5109679;27;20085;-68
2021/03/18 12:44:38;;;;;;;3.35;1.55;;;;;;;;;;5108368;27;20118;-68
2021/03/18 12:47:04;;;;;;;1.50;0.88;;;;;;;;;;5101351;27;20036;-67
2021/03/18 12:49:30;;;;;;;2.13;1.85;;;;;;;;;;5105111;27;20501;-67
2021/03/18 12:51:56;;;;;;;2.30;1.20;;;;;;;;;;5111808;27;21867;-68
2021/03/18 12:54:22;;;;;;;5.25;1.83;;;;;;;;;;5104309;27;20051;-68
2021/03/18 12:56:48;;;;;;;4.45;1.40;;;;;;;;;;5102764;27;20036;-66
2021/03/18 12:59:14;;;;;;;1.45;1.15;;;;;;;;;;5099860;27;20589;-67
2021/03/18 13:01:40;;;;;;;3.10;0.75;;;;;;;;;;5103988;28;20027;-68
2021/03/18 13:04:07;;;;;;;4.75;1.30;;;;;;;;;;5102782;28;20104;-67
2021/03/18 13:06:34;;;;;;;2.65;1.40;;;;;;;;;;5103492;28;20527;-68
2021/03/18 13:09:00;;;;;;;5.32;1.33;;;;;;;;;;5103169;28;20123;-68
2021/03/18 13:11:26;;;;;;;1.45;0.98;;;;;;;;;;5102751;28;20027;-68
2021/03/18 13:13:52;;;;;;;1.70;0.98;;;;;;;;;;5105035;28;20043;-68
2021/03/18 13:16:19;;;;;;;1.30;1.20;;;;;;;;;;5101804;28;20093;-68
2021/03/18 13:18:45;;;;;;;3.05;1.33;;;;;;;;;;5101359;28;20096;-67
2021/03/18 13:21:11;;;;;;;1.30;0.80;;;;;;;;;;5100522;28;20069;-67
2021/03/18 13:23:37;;;;;;;2.50;0.98;;;;;;;;;;5099817;27;20035;-67
2021/03/18 13:26:03;;;;;;;1.38;1.10;;;;;;;;;;5104053;27;20069;-67
2021/03/18 13:28:30;;;;;;;0.90;0.90;;;;;;;;;;5103246;28;20509;-67
2021/03/18 13:30:57;;;;;;;1.20;0.47;;;;;;;;;;5102923;28;20039;-67
2021/03/18 13:33:23;;;;;;;2.20;0.95;;;;;;;;;;5102778;28;20431;-67
2021/03/18 13:35:50;;;;;;;0.98;0.88;;;;;;;;;;5103773;28;20036;-67
2021/03/18 13:38:16;;;;;;;1.40;0.93;;;;;;;;;;5103060;28;20450;-68
2021/03/18 13:40:44;;;;;;;2.95;1.30;;;;;;;;;;5102236;28;20072;-67
2021/03/18 13:43:10;;;;;;;1.75;1.30;;;;;;;;;;5103876;28;20035;-71
2021/03/18 13:45:38;;;;;;;2.08;1.48;;;;;;;;;;5101129;28;20055;-66
2021/03/18 13:48:04;;;;;;;4.07;2.30;;;;;;;;;;5102628;28;20043;-67
2021/03/18 13:50:31;;;;;;;2.90;1.30;;;;;;;;;;5101869;28;20114;-67
2021/03/18 13:52:57;;;;;;;3.30;0.93;;;;;;;;;;5103815;28;20513;-67
2021/03/18 13:55:24;;;;;;;4.10;3.42;;;;;;;;;;5103059;28;20027;-68
2021/03/18 13:57:50;;;;;;;1.40;1.02;;;;;;;;;;5102844;27;20042;-67
2021/03/18 14:00:16;;;;;;;5.63;3.85;;;;;;;;;;5103913;27;20032;-67
2021/03/18 14:02:42;;;;;;;3.88;2.10;;;;;;;;;;5105070;27;20051;-67
2021/03/18 14:05:09;;;;;;;2.92;1.67;;;;;;;;;;5114782;27;20622;-67
2021/03/18 14:07:35;;;;;;;1.77;1.40;;;;;;;;;;5106378;27;20027;-67
2021/03/18 14:10:02;;;;;;;3.45;2.10;;;;;;;;;;5108477;27;20131;-66
2021/03/18 14:12:28;;;;;;;3.67;2.00;;;;;;;;;;5105520;27;20032;-67
2021/03/18 14:14:54;;;;;;;1.20;1.10;;;;;;;;;;5107873;27;20041;-67
2021/03/18 14:17:20;;;;;;;2.50;2.10;;;;;;;;;;5097776;27;20528;-67
2021/03/18 14:19:46;;;;;;;2.20;1.10;;;;;;;;;;5104125;27;20026;-66
2021/03/18 14:22:12;;;;;;;2.05;1.55;;;;;;;;;;5111353;27;20478;-66
2021/03/18 14:24:38;;;;;;;5.28;1.30;;;;;;;;;;5109776;27;20051;-66
2021/03/18 14:27:04;;;;;;;2.28;1.30;;;;;;;;;;5099166;27;20032;-66
2021/03/18 14:29:30;;;;;;;2.05;1.13;;;;;;;;;;5105019;27;20126;-66
2021/03/18 14:31:56;;;;;;;3.53;1.70;;;;;;;;;;5104917;27;20020;-66
2021/03/18 14:34:23;;;;;;;1.75;1.30;;;;;;;;;;5105241;27;20218;-66
2021/03/18 14:36:49;;;;;;;1.70;1.60;;;;;;;;;;5105087;27;20092;-66
2021/03/18 14:39:16;;;;;;;2.38;1.10;;;;;;;;;;5104319;27;20596;-66
2021/03/18 14:41:42;;;;;;;2.88;1.75;;;;;;;;;;5113530;27;20068;-66
2021/03/18 14:44:09;;;;;;;2.83;1.55;;;;;;;;;;5106443;27;20040;-66
2021/03/18 14:46:35;;;;;;;1.45;1.35;;;;;;;;;;5102031;27;20031;-66